Etusivu
METAR-TAF:

METAR-TAF

Lentoasemat :

Kelso, Washington, Yhdysvallat

Leveyspiiri: 46-07N, Pituuspiiri: 122-54W, korkeus merenpinnasta: 5 m

Tämänhetkinen sää

Tämä raportti tehtiin 45 minuuttia sitten, kello 12.56 UTC
tyyntä
Lämpötila 14°C
Kosteus 94%
Ilmanpaine 1019 hPa
Näkyvyys: 16.1 km
Muutamia pilviä 700 ft:n korkeudessa

METAR: KKLS 041256Z AUTO 00000KT 10SM FEW007 14/13 A3010 RMK AO2 SLP198 T01390128 PNO $

Aika: 06:41 (13:41 UTC)


TAF: puuttuu

Säähavainnot ja -ennusteet yli 4000 lentoasemalta (METAR- ja TAF-raportit).

Käytössä olevat sääasemat on merkitty karttaan keltaisilla ja punaisilla pisteillä.

Aseta hiiri pisteen päälle nähdäksesi sääaseman nimen.

Klikkaa sitten nähdäksesi säähavainnot ja -ennusteet.

Kartan vaihtaminen: klikkaa mustalla rastilla varustettuja vihreitä pisteitä, niin voit zoomata sisään; viivalla varustettua vihreää pistettä, niin voit zoomata ulos tai vihreitä nuolia, niin pääset viereisille kartoille.


METAR-TAF: